Time;durP1;ratioP1;P1;durP2;ratioP2;P2;SDS_P1;SDS_P2;PMS_P1;PMS_P2;Temp;Humidity;BMP_temperature;BMP_pressure;BME280_temperature;BME280_humidity;BME280_pressure;Samples;Min_cycle;Max_cycle;Signal;HPM_P1;HPM_P2
2021/11/23 00:00:13;;;;;;;143.23;13.60;;;;;;;;;;5004570;28;20034;-46
2021/11/23 00:02:40;;;;;;;105.53;10.45;;;;;;;;;;4986122;28;20512;-46
2021/11/23 00:05:08;;;;;;;143.57;12.70;;;;;;;;;;4990350;28;20030;-41
2021/11/23 00:07:35;;;;;;;110.55;10.55;;;;;;;;;;4989450;28;20133;-46
2021/11/23 00:10:02;;;;;;;132.95;12.88;;;;;;;;;;4987926;28;20490;-44
2021/11/23 00:12:29;;;;;;;169.68;13.57;;;;;;;;;;4991114;28;20033;-44
2021/11/23 00:14:56;;;;;;;136.48;12.38;;;;;;;;;;4994121;28;20038;-52
2021/11/23 00:17:24;;;;;;;137.93;12.40;;;;;;;;;;4983763;28;22109;-44
2021/11/23 00:19:51;;;;;;;173.65;14.48;;;;;;;;;;4987693;28;20038;-46
2021/11/23 00:22:18;;;;;;;142.02;12.77;;;;;;;;;;4985899;28;20019;-48
2021/11/23 00:24:45;;;;;;;114.68;11.85;;;;;;;;;;4990050;28;20105;-44
2021/11/23 00:27:12;;;;;;;116.22;13.30;;;;;;;;;;4993161;28;20108;-49
2021/11/23 00:29:39;;;;;;;198.40;16.52;;;;;;;;;;4999229;28;20113;-43
2021/11/23 00:32:06;;;;;;;139.35;14.20;;;;;;;;;;4993237;28;20025;-48
2021/11/23 00:34:33;;;;;;;135.18;13.07;;;;;;;;;;4993290;28;20030;-47
2021/11/23 00:37:00;;;;;;;131.73;14.23;;;;;;;;;;4997671;28;20022;-44
2021/11/23 00:39:27;;;;;;;147.55;15.85;;;;;;;;;;4997818;28;20045;-44
2021/11/23 00:41:54;;;;;;;101.30;18.20;;;;;;;;;;4998243;28;20031;-48
2021/11/23 00:44:22;;;;;;;99.05;12.73;;;;;;;;;;4993195;28;20048;-46
2021/11/23 00:46:50;;;;;;;96.93;14.27;;;;;;;;;;4992167;28;20026;-46
2021/11/23 00:49:17;;;;;;;87.50;10.80;;;;;;;;;;4981769;28;20034;-46
2021/11/23 00:51:44;;;;;;;129.55;13.07;;;;;;;;;;4991857;28;20069;-45
2021/11/23 00:54:11;;;;;;;246.50;19.15;;;;;;;;;;4993840;28;20600;-48
2021/11/23 00:56:39;;;;;;;219.68;18.65;;;;;;;;;;4987838;28;20110;-46
2021/11/23 00:59:06;;;;;;;195.60;18.70;;;;;;;;;;4996682;28;20022;-44
2021/11/23 01:01:33;;;;;;;166.27;16.23;;;;;;;;;;4979460;28;20085;-46
2021/11/23 01:04:00;;;;;;;148.98;15.15;;;;;;;;;;4985165;28;20109;-47
2021/11/23 01:06:27;;;;;;;112.50;11.27;;;;;;;;;;4980953;28;20482;-48
2021/11/23 01:08:54;;;;;;;93.57;8.02;;;;;;;;;;4982011;28;20048;-43
2021/11/23 01:11:21;;;;;;;77.28;8.00;;;;;;;;;;4982808;28;20033;-44
2021/11/23 01:13:49;;;;;;;64.32;7.32;;;;;;;;;;4983708;28;20077;-45
2021/11/23 01:16:17;;;;;;;71.82;7.88;;;;;;;;;;4985653;28;20042;-46
2021/11/23 01:18:44;;;;;;;67.88;6.93;;;;;;;;;;4987352;28;20022;-44
2021/11/23 01:21:12;;;;;;;40.40;5.60;;;;;;;;;;4990523;28;20026;-40
2021/11/23 01:23:39;;;;;;;114.82;9.20;;;;;;;;;;5001797;28;20085;-45
2021/11/23 01:26:07;;;;;;;67.80;7.82;;;;;;;;;;5000002;28;20030;-41
2021/11/23 01:28:34;;;;;;;71.65;6.75;;;;;;;;;;4994231;28;20078;-43
2021/11/23 01:31:02;;;;;;;45.20;5.93;;;;;;;;;;4995581;28;20025;-50
2021/11/23 01:33:29;;;;;;;48.13;4.80;;;;;;;;;;4990412;28;20101;-48
2021/11/23 01:35:56;;;;;;;45.10;4.75;;;;;;;;;;4998477;28;20046;-48
2021/11/23 01:38:23;;;;;;;40.33;4.75;;;;;;;;;;4991316;28;20030;-46
2021/11/23 01:40:50;;;;;;;42.45;4.38;;;;;;;;;;4996363;28;20033;-47
2021/11/23 01:43:17;;;;;;;39.13;4.13;;;;;;;;;;4999319;28;20057;-47
2021/11/23 01:45:44;;;;;;;48.42;4.78;;;;;;;;;;4992076;28;20027;-46
2021/11/23 01:48:11;;;;;;;35.80;4.40;;;;;;;;;;4997695;28;20087;-49
2021/11/23 01:50:39;;;;;;;44.90;4.45;;;;;;;;;;4993391;28;20112;-44
2021/11/23 01:53:07;;;;;;;24.30;3.13;;;;;;;;;;4985803;28;20390;-44
2021/11/23 01:55:37;;;;;;;47.35;4.88;;;;;;;;;;4979387;28;20038;-46
2021/11/23 01:58:06;;;;;;;48.05;5.13;;;;;;;;;;4989214;28;20383;-47
2021/11/23 02:00:33;;;;;;;36.55;3.25;;;;;;;;;;4997411;28;20120;-44
2021/11/23 02:03:00;;;;;;;42.72;3.45;;;;;;;;;;4983870;28;20026;-44
2021/11/23 02:05:28;;;;;;;26.25;3.00;;;;;;;;;;4984246;28;20371;-41
2021/11/23 02:07:55;;;;;;;38.30;3.20;;;;;;;;;;4991198;28;20029;-40
2021/11/23 02:10:22;;;;;;;52.55;4.30;;;;;;;;;;4984844;28;20106;-44
2021/11/23 02:12:50;;;;;;;38.90;3.33;;;;;;;;;;4996077;28;20025;-39
2021/11/23 02:15:17;;;;;;;44.65;3.33;;;;;;;;;;5000365;28;20039;-42
2021/11/23 02:17:47;;;;;;;41.63;2.50;;;;;;;;;;4993062;28;20035;-42
2021/11/23 02:20:18;;;;;;;37.85;3.63;;;;;;;;;;4994974;28;20027;-46
2021/11/23 02:22:47;;;;;;;25.02;2.65;;;;;;;;;;5000486;28;20034;-51
2021/11/23 02:25:14;;;;;;;44.90;3.53;;;;;;;;;;5000321;28;20077;-46
2021/11/23 02:27:42;;;;;;;32.85;3.20;;;;;;;;;;4989744;28;20105;-45
2021/11/23 02:30:11;;;;;;;38.25;3.72;;;;;;;;;;4992826;28;20038;-46
2021/11/23 02:32:39;;;;;;;57.25;4.13;;;;;;;;;;5008934;28;20022;-42
2021/11/23 02:35:06;;;;;;;59.40;4.70;;;;;;;;;;5008189;28;20481;-40
2021/11/23 02:37:33;;;;;;;72.43;4.88;;;;;;;;;;5010198;28;20018;-41
2021/11/23 02:40:00;;;;;;;58.78;5.30;;;;;;;;;;5006982;28;20513;-44
2021/11/23 02:42:27;;;;;;;66.60;4.15;;;;;;;;;;4993318;28;20116;-44
2021/11/23 02:44:54;;;;;;;32.70;2.80;;;;;;;;;;5004368;28;20024;-44
2021/11/23 02:47:21;;;;;;;48.58;3.25;;;;;;;;;;5009370;28;20105;-42
2021/11/23 02:49:48;;;;;;;36.80;3.10;;;;;;;;;;5010129;28;20037;-46
2021/11/23 02:52:15;;;;;;;33.05;4.05;;;;;;;;;;5009799;28;20060;-45
2021/11/23 02:54:53;;;;;;;46.80;3.75;;;;;;;;;;5005797;28;20036;-45
2021/11/23 02:57:27;;;;;;;44.95;3.80;;;;;;;;;;5008911;28;20040;-46
2021/11/23 02:59:54;;;;;;;44.83;4.18;;;;;;;;;;5009860;28;20021;-45
2021/11/23 03:02:22;;;;;;;54.80;3.20;;;;;;;;;;5009715;28;20084;-45
2021/11/23 03:04:56;;;;;;;47.17;3.97;;;;;;;;;;5005927;28;20025;-46
2021/11/23 03:07:24;;;;;;;48.83;4.80;;;;;;;;;;5007700;28;20026;-44
2021/11/23 03:09:51;;;;;;;57.95;5.07;;;;;;;;;;5005961;28;20390;-45
2021/11/23 03:12:24;;;;;;;61.80;5.50;;;;;;;;;;5008808;28;20018;-45
2021/11/23 03:14:51;;;;;;;62.75;4.95;;;;;;;;;;5008441;28;20034;-46
2021/11/23 03:17:19;;;;;;;54.00;3.65;;;;;;;;;;5008720;28;20033;-46
2021/11/23 03:19:47;;;;;;;58.92;5.47;;;;;;;;;;5009579;28;20521;-44
2021/11/23 03:22:14;;;;;;;52.60;4.50;;;;;;;;;;5010673;28;20037;-41
2021/11/23 03:24:41;;;;;;;50.70;4.40;;;;;;;;;;5010558;28;20105;-40
2021/11/23 03:27:10;;;;;;;48.22;4.53;;;;;;;;;;5010413;28;20026;-41
2021/11/23 03:29:37;;;;;;;43.30;3.63;;;;;;;;;;5008999;28;20481;-40
2021/11/23 03:32:05;;;;;;;38.30;4.28;;;;;;;;;;5009991;28;20084;-40
2021/11/23 03:34:37;;;;;;;30.98;3.10;;;;;;;;;;5010854;28;20042;-40
2021/11/23 03:37:09;;;;;;;29.92;3.45;;;;;;;;;;5010725;28;20026;-41
2021/11/23 03:39:36;;;;;;;32.40;3.72;;;;;;;;;;5010502;28;20496;-42
2021/11/23 03:42:04;;;;;;;30.88;3.35;;;;;;;;;;5010471;28;20409;-39
2021/11/23 03:44:31;;;;;;;35.08;2.97;;;;;;;;;;5010962;28;20022;-41
2021/11/23 03:46:58;;;;;;;33.33;3.58;;;;;;;;;;5010711;28;20034;-40
2021/11/23 03:49:25;;;;;;;21.92;3.03;;;;;;;;;;5010673;28;20049;-42
2021/11/23 03:51:53;;;;;;;42.50;3.42;;;;;;;;;;5010590;28;20029;-40
2021/11/23 03:54:20;;;;;;;28.70;3.13;;;;;;;;;;5010163;28;20116;-43
2021/11/23 03:56:47;;;;;;;22.13;2.88;;;;;;;;;;5010395;28;20717;-41
2021/11/23 03:59:15;;;;;;;22.10;2.83;;;;;;;;;;5009500;28;20041;-40
2021/11/23 04:01:42;;;;;;;28.80;2.65;;;;;;;;;;5009478;28;20034;-44
2021/11/23 04:04:10;;;;;;;31.23;2.78;;;;;;;;;;5010809;28;20069;-40
2021/11/23 04:06:37;;;;;;;26.02;3.08;;;;;;;;;;5010830;28;20024;-41
2021/11/23 04:09:04;;;;;;;28.33;3.15;;;;;;;;;;5012585;28;20136;-41
2021/11/23 04:11:31;;;;;;;32.50;2.90;;;;;;;;;;5013247;28;20029;-41
2021/11/23 04:13:58;;;;;;;26.73;3.03;;;;;;;;;;5014227;28;20030;-44
2021/11/23 04:16:26;;;;;;;19.65;3.42;;;;;;;;;;5014176;28;20101;-40
2021/11/23 04:18:53;;;;;;;30.02;2.92;;;;;;;;;;5014325;28;20049;-42
2021/11/23 04:21:20;;;;;;;21.08;2.60;;;;;;;;;;5013004;28;20038;-40
2021/11/23 04:23:47;;;;;;;27.10;2.92;;;;;;;;;;5014092;28;20022;-41
2021/11/23 04:26:14;;;;;;;27.13;3.00;;;;;;;;;;5013862;28;20034;-43
2021/11/23 04:28:41;;;;;;;27.10;2.65;;;;;;;;;;5012875;28;20065;-41
2021/11/23 04:31:08;;;;;;;24.52;3.10;;;;;;;;;;5013195;28;20021;-40
2021/11/23 04:33:35;;;;;;;19.45;2.58;;;;;;;;;;5014360;28;20030;-41
2021/11/23 04:36:03;;;;;;;20.13;2.47;;;;;;;;;;5013815;28;20038;-41
2021/11/23 04:38:30;;;;;;;23.75;2.58;;;;;;;;;;5013136;28;20497;-42
2021/11/23 04:40:57;;;;;;;28.00;2.40;;;;;;;;;;5012844;28;20469;-43
2021/11/23 04:43:24;;;;;;;19.88;2.63;;;;;;;;;;5013585;28;20050;-42
2021/11/23 04:45:51;;;;;;;19.17;2.85;;;;;;;;;;5013519;28;20028;-41
2021/11/23 04:48:20;;;;;;;26.02;2.40;;;;;;;;;;5013728;28;20049;-42
2021/11/23 04:50:47;;;;;;;24.75;2.95;;;;;;;;;;5012674;28;20029;-40
2021/11/23 04:53:14;;;;;;;20.40;2.60;;;;;;;;;;5013811;28;20437;-41
2021/11/23 04:55:41;;;;;;;25.70;2.38;;;;;;;;;;5013640;28;20041;-41
2021/11/23 04:58:08;;;;;;;19.15;1.67;;;;;;;;;;5013424;28;20052;-41
2021/11/23 05:00:35;;;;;;;19.25;2.47;;;;;;;;;;5011656;28;20390;-40
2021/11/23 05:03:02;;;;;;;23.63;2.30;;;;;;;;;;5013389;28;20029;-41
2021/11/23 05:05:29;;;;;;;20.10;2.72;;;;;;;;;;5012443;28;20036;-41
2021/11/23 05:07:56;;;;;;;14.55;1.90;;;;;;;;;;5013316;28;20087;-40
2021/11/23 05:10:23;;;;;;;21.13;2.42;;;;;;;;;;5012989;28;20079;-43
2021/11/23 05:12:50;;;;;;;18.20;2.38;;;;;;;;;;5013525;28;20029;-44
2021/11/23 05:15:17;;;;;;;10.70;2.05;;;;;;;;;;5012597;28;20546;-44
2021/11/23 05:17:44;;;;;;;14.38;2.45;;;;;;;;;;5013196;28;20033;-44
2021/11/23 05:20:12;;;;;;;16.20;1.88;;;;;;;;;;5012464;28;20026;-44
2021/11/23 05:22:39;;;;;;;16.20;2.42;;;;;;;;;;5012951;28;20477;-44
2021/11/23 05:25:07;;;;;;;11.50;1.50;;;;;;;;;;5013607;28;20021;-44
2021/11/23 05:27:34;;;;;;;21.00;2.05;;;;;;;;;;5013665;28;20022;-44
2021/11/23 05:30:02;;;;;;;14.43;2.22;;;;;;;;;;5012622;28;20418;-46
2021/11/23 05:32:30;;;;;;;14.73;1.80;;;;;;;;;;5012891;28;20101;-45
2021/11/23 05:34:57;;;;;;;12.93;1.70;;;;;;;;;;5013535;28;20034;-45
2021/11/23 05:37:24;;;;;;;12.27;2.00;;;;;;;;;;5013525;28;20034;-45
2021/11/23 05:39:51;;;;;;;12.38;1.90;;;;;;;;;;5012587;28;20029;-46
2021/11/23 05:42:17;;;;;;;13.93;2.15;;;;;;;;;;5012972;28;20097;-44
2021/11/23 05:44:44;;;;;;;13.15;2.38;;;;;;;;;;5013037;28;20041;-44
2021/11/23 05:47:11;;;;;;;11.02;1.63;;;;;;;;;;5013213;28;20025;-44
2021/11/23 05:49:38;;;;;;;9.02;2.10;;;;;;;;;;5013414;28;20080;-45
2021/11/23 05:52:06;;;;;;;10.63;1.38;;;;;;;;;;5012961;28;20058;-45
2021/11/23 05:54:32;;;;;;;11.07;1.50;;;;;;;;;;5013143;28;20486;-45
2021/11/23 05:57:01;;;;;;;11.90;1.90;;;;;;;;;;5013292;28;20026;-44
2021/11/23 05:59:28;;;;;;;15.55;2.17;;;;;;;;;;5012994;28;20089;-46
2021/11/23 06:01:55;;;;;;;14.65;2.17;;;;;;;;;;4994834;28;20138;-43
2021/11/23 06:04:22;;;;;;;13.75;2.03;;;;;;;;;;4992930;28;20031;-46
2021/11/23 06:06:49;;;;;;;10.98;1.80;;;;;;;;;;4993259;28;20027;-44
2021/11/23 06:09:16;;;;;;;13.43;1.73;;;;;;;;;;4993357;28;20101;-45
2021/11/23 06:11:43;;;;;;;10.50;1.52;;;;;;;;;;4992221;28;20042;-44
2021/11/23 06:14:10;;;;;;;15.15;1.67;;;;;;;;;;4993008;28;20113;-45
2021/11/23 06:16:38;;;;;;;15.00;2.03;;;;;;;;;;4992668;28;20418;-43
2021/11/23 06:19:05;;;;;;;13.32;2.17;;;;;;;;;;4993268;28;20022;-43
2021/11/23 06:21:31;;;;;;;13.77;1.40;;;;;;;;;;4991908;28;20540;-45
2021/11/23 06:23:58;;;;;;;10.80;2.15;;;;;;;;;;4992570;28;20486;-44
2021/11/23 06:26:25;;;;;;;12.20;1.95;;;;;;;;;;4992544;28;20030;-44
2021/11/23 06:28:52;;;;;;;7.85;1.38;;;;;;;;;;4992536;28;20050;-43
2021/11/23 06:31:19;;;;;;;10.27;1.80;;;;;;;;;;4992020;28;20034;-45
2021/11/23 06:33:46;;;;;;;10.77;1.35;;;;;;;;;;4992570;28;20378;-44
2021/11/23 06:36:13;;;;;;;12.20;1.65;;;;;;;;;;4992851;28;20038;-43
2021/11/23 06:38:41;;;;;;;10.32;1.20;;;;;;;;;;4992907;28;20026;-46
2021/11/23 06:41:08;;;;;;;12.85;1.50;;;;;;;;;;4992219;28;20030;-44
2021/11/23 06:43:35;;;;;;;15.85;1.70;;;;;;;;;;4992569;28;20158;-43
2021/11/23 06:46:02;;;;;;;12.75;2.17;;;;;;;;;;4992526;28;20026;-44
2021/11/23 06:48:28;;;;;;;14.68;1.85;;;;;;;;;;4992807;28;20069;-44
2021/11/23 06:50:55;;;;;;;10.88;1.73;;;;;;;;;;5009692;28;20503;-43
2021/11/23 06:53:22;;;;;;;7.00;1.52;;;;;;;;;;5011159;28;20026;-44
2021/11/23 06:55:49;;;;;;;14.23;1.75;;;;;;;;;;5011023;28;20029;-46
2021/11/23 06:58:17;;;;;;;15.55;1.92;;;;;;;;;;5012640;28;20060;-45
2021/11/23 07:00:44;;;;;;;10.60;1.50;;;;;;;;;;5011618;28;20029;-47
2021/11/23 07:03:11;;;;;;;10.40;1.95;;;;;;;;;;5011738;28;20014;-42
2021/11/23 07:05:38;;;;;;;12.40;1.88;;;;;;;;;;5012124;28;20382;-46
2021/11/23 07:08:05;;;;;;;10.43;1.70;;;;;;;;;;5011550;28;20036;-42
2021/11/23 07:10:32;;;;;;;11.48;1.98;;;;;;;;;;5011920;28;20068;-41
2021/11/23 07:13:01;;;;;;;12.77;1.75;;;;;;;;;;5011086;28;20022;-44
2021/11/23 07:15:29;;;;;;;13.20;1.75;;;;;;;;;;5011744;28;20552;-44
2021/11/23 07:17:56;;;;;;;9.80;1.27;;;;;;;;;;5011422;28;20477;-44
2021/11/23 07:20:23;;;;;;;8.10;1.50;;;;;;;;;;5011544;28;20064;-44
2021/11/23 07:22:50;;;;;;;17.58;2.40;;;;;;;;;;5011021;28;20021;-45
2021/11/23 07:25:17;;;;;;;9.25;1.55;;;;;;;;;;5009745;28;20363;-44
2021/11/23 07:27:44;;;;;;;11.18;1.80;;;;;;;;;;5010537;28;20026;-44
2021/11/23 07:30:11;;;;;;;8.15;1.48;;;;;;;;;;5011235;28;20040;-44
2021/11/23 07:32:38;;;;;;;15.75;1.45;;;;;;;;;;5010441;28;20018;-44
2021/11/23 07:35:05;;;;;;;14.68;1.60;;;;;;;;;;5010811;28;20557;-45
2021/11/23 07:37:40;;;;;;;14.18;1.27;;;;;;;;;;5010891;28;20025;-45
2021/11/23 07:40:07;;;;;;;14.00;1.98;;;;;;;;;;5011722;28;20034;-45
2021/11/23 07:42:34;;;;;;;10.80;1.52;;;;;;;;;;5011440;28;20521;-45
2021/11/23 07:45:01;;;;;;;9.18;1.48;;;;;;;;;;5015282;28;20026;-45
2021/11/23 07:47:28;;;;;;;9.85;1.70;;;;;;;;;;5015559;28;20037;-45
2021/11/23 07:49:55;;;;;;;9.63;1.60;;;;;;;;;;5015330;28;20107;-44
2021/11/23 07:52:22;;;;;;;12.50;1.70;;;;;;;;;;5014786;28;20029;-44
2021/11/23 07:54:49;;;;;;;7.47;1.38;;;;;;;;;;5015400;28;20485;-46
2021/11/23 07:57:16;;;;;;;12.02;1.60;;;;;;;;;;5015701;28;20034;-44
2021/11/23 07:59:43;;;;;;;11.02;1.70;;;;;;;;;;5015407;28;20018;-45
2021/11/23 08:02:10;;;;;;;14.85;1.92;;;;;;;;;;5015275;28;20100;-43
2021/11/23 08:04:36;;;;;;;8.73;1.20;;;;;;;;;;5014816;28;20076;-46
2021/11/23 08:07:03;;;;;;;10.00;1.17;;;;;;;;;;5015532;28;20045;-44
2021/11/23 08:09:31;;;;;;;6.05;1.42;;;;;;;;;;5015213;28;20474;-45
2021/11/23 08:11:58;;;;;;;10.02;1.30;;;;;;;;;;5014959;28;20040;-45
2021/11/23 08:14:26;;;;;;;8.00;1.45;;;;;;;;;;5015004;28;20053;-47
2021/11/23 08:16:54;;;;;;;19.75;1.80;;;;;;;;;;5015238;28;20030;-45
2021/11/23 08:19:21;;;;;;;18.02;2.25;;;;;;;;;;5015033;28;20021;-44
2021/11/23 08:21:49;;;;;;;9.30;1.40;;;;;;;;;;5014705;28;20030;-43
2021/11/23 08:24:16;;;;;;;9.55;1.73;;;;;;;;;;5014108;28;20064;-44
2021/11/23 08:26:43;;;;;;;11.63;1.63;;;;;;;;;;5014937;28;20160;-45
2021/11/23 08:29:10;;;;;;;11.48;1.50;;;;;;;;;;5014799;28;20054;-44
2021/11/23 08:31:37;;;;;;;9.25;1.35;;;;;;;;;;5014179;28;20022;-45
2021/11/23 08:34:05;;;;;;;11.93;1.50;;;;;;;;;;5014625;28;20033;-44
2021/11/23 08:36:33;;;;;;;17.83;1.83;;;;;;;;;;5013665;28;20037;-45
2021/11/23 08:39:00;;;;;;;11.75;1.40;;;;;;;;;;5013800;28;20410;-43
2021/11/23 08:41:28;;;;;;;10.77;1.50;;;;;;;;;;5014380;28;20057;-43
2021/11/23 08:43:55;;;;;;;10.25;1.52;;;;;;;;;;5013526;28;20026;-42
2021/11/23 08:46:22;;;;;;;6.75;1.50;;;;;;;;;;5014441;28;20394;-43
2021/11/23 08:48:49;;;;;;;8.20;1.67;;;;;;;;;;5014385;28;20026;-46
2021/11/23 08:51:22;;;;;;;13.68;2.10;;;;;;;;;;5013538;28;20054;-42
2021/11/23 08:53:49;;;;;;;10.73;1.63;;;;;;;;;;5013321;28;20036;-43
2021/11/23 08:56:16;;;;;;;10.20;1.50;;;;;;;;;;5012181;28;20040;-43
2021/11/23 08:58:46;;;;;;;10.32;1.45;;;;;;;;;;5013805;28;20064;-42
2021/11/23 09:01:13;;;;;;;11.05;1.60;;;;;;;;;;5013732;28;20026;-44
2021/11/23 09:03:41;;;;;;;9.32;1.70;;;;;;;;;;5011406;28;20428;-44
2021/11/23 09:06:08;;;;;;;9.75;1.40;;;;;;;;;;5013231;28;20025;-44
2021/11/23 09:08:39;;;;;;;10.65;1.40;;;;;;;;;;5013053;28;20030;-41
2021/11/23 09:11:06;;;;;;;14.10;2.03;;;;;;;;;;5013324;28;20101;-45
2021/11/23 09:13:33;;;;;;;21.55;3.08;;;;;;;;;;5012682;28;20022;-44
2021/11/23 09:16:00;;;;;;;25.42;2.35;;;;;;;;;;5012735;28;20038;-45
2021/11/23 09:18:27;;;;;;;23.05;2.78;;;;;;;;;;5013015;28;20494;-44
2021/11/23 09:20:54;;;;;;;27.98;2.20;;;;;;;;;;5013250;28;20053;-46
2021/11/23 09:23:20;;;;;;;15.50;2.13;;;;;;;;;;5012163;28;20021;-42
2021/11/23 09:25:47;;;;;;;25.13;2.50;;;;;;;;;;5012956;28;20500;-41
2021/11/23 09:28:15;;;;;;;20.60;2.13;;;;;;;;;;5012347;28;20092;-40
2021/11/23 09:30:44;;;;;;;15.23;1.92;;;;;;;;;;5013198;28;20105;-42
2021/11/23 09:33:11;;;;;;;19.10;1.73;;;;;;;;;;5012782;28;20030;-41
2021/11/23 09:35:38;;;;;;;12.55;2.10;;;;;;;;;;5011895;28;20046;-40
2021/11/23 09:38:05;;;;;;;15.02;2.08;;;;;;;;;;5010681;28;20026;-43
2021/11/23 09:40:32;;;;;;;15.80;2.10;;;;;;;;;;5011777;28;20025;-40
2021/11/23 09:43:00;;;;;;;23.55;2.60;;;;;;;;;;5008805;28;20029;-44
2021/11/23 09:45:27;;;;;;;16.60;2.17;;;;;;;;;;5011286;28;20029;-40
2021/11/23 09:47:55;;;;;;;24.80;2.17;;;;;;;;;;5011899;28;20048;-40
2021/11/23 09:50:21;;;;;;;29.35;3.13;;;;;;;;;;5003445;28;20497;-43
2021/11/23 09:52:48;;;;;;;19.52;3.45;;;;;;;;;;5008743;28;20060;-44
2021/11/23 09:55:17;;;;;;;39.65;3.60;;;;;;;;;;5011392;28;20045;-41
2021/11/23 09:57:44;;;;;;;42.92;4.25;;;;;;;;;;5011423;28;20429;-41
2021/11/23 10:00:29;;;;;;;33.67;4.05;;;;;;;;;;5011652;28;20049;-43
2021/11/23 10:03:16;;;;;;;41.90;3.95;;;;;;;;;;5012004;28;20072;-43
2021/11/23 10:05:43;;;;;;;35.15;3.05;;;;;;;;;;5010734;28;20108;-42
2021/11/23 10:08:12;;;;;;;35.83;3.47;;;;;;;;;;5011610;28;20558;-41
2021/11/23 10:10:44;;;;;;;34.50;3.05;;;;;;;;;;5012028;28;20492;-44
2021/11/23 10:13:12;;;;;;;36.30;3.78;;;;;;;;;;5011853;28;20482;-41
2021/11/23 10:15:45;;;;;;;52.72;4.28;;;;;;;;;;4983120;28;20054;-41
2021/11/23 10:18:26;;;;;;;38.65;3.63;;;;;;;;;;4978536;28;20027;-42
2021/11/23 10:20:55;;;;;;;39.85;3.38;;;;;;;;;;4981431;28;20080;-42
2021/11/23 10:23:22;;;;;;;37.72;3.70;;;;;;;;;;4989664;28;20027;-42
2021/11/23 10:25:51;;;;;;;45.97;3.85;;;;;;;;;;4979966;28;20030;-40
2021/11/23 10:28:19;;;;;;;33.75;3.20;;;;;;;;;;4992588;28;20042;-40
2021/11/23 10:30:47;;;;;;;55.30;4.40;;;;;;;;;;4983209;28;20065;-47
2021/11/23 10:33:16;;;;;;;51.97;4.25;;;;;;;;;;4985636;28;20026;-44
2021/11/23 10:35:44;;;;;;;31.20;3.20;;;;;;;;;;4983252;28;20042;-44
2021/11/23 10:38:13;;;;;;;26.88;2.67;;;;;;;;;;4985543;28;20026;-46
2021/11/23 10:40:42;;;;;;;48.20;4.43;;;;;;;;;;4980890;28;20034;-47
2021/11/23 10:43:14;;;;;;;41.75;3.88;;;;;;;;;;4988659;28;20018;-43
2021/11/23 10:45:47;;;;;;;53.00;4.78;;;;;;;;;;4990375;28;20094;-44
2021/11/23 10:48:15;;;;;;;72.78;6.85;;;;;;;;;;4980905;28;20118;-45
2021/11/23 10:50:43;;;;;;;105.95;8.10;;;;;;;;;;4983844;28;20118;-45
2021/11/23 10:53:16;;;;;;;89.20;7.68;;;;;;;;;;4980623;28;20549;-40
2021/11/23 10:55:42;;;;;;;;;;;;;;;;;;4979711;28;20057;-43
2021/11/23 10:58:10;;;;;;;91.45;8.68;;;;;;;;;;4983765;28;19920;-44
2021/11/23 11:00:40;;;;;;;68.78;6.75;;;;;;;;;;4987933;28;20030;-47
2021/11/23 11:03:07;;;;;;;75.47;6.82;;;;;;;;;;4980303;28;20586;-45
2021/11/23 11:05:38;;;;;;;66.10;5.57;;;;;;;;;;4987497;28;20442;-42
2021/11/23 11:08:06;;;;;;;55.25;4.68;;;;;;;;;;4982625;28;20037;-44
2021/11/23 11:10:33;;;;;;;55.40;5.30;;;;;;;;;;4983874;28;20433;-40
2021/11/23 11:13:02;;;;;;;75.05;11.82;;;;;;;;;;4978049;28;20026;-46
2021/11/23 11:15:36;;;;;;;62.28;6.10;;;;;;;;;;4977638;28;20119;-44
2021/11/23 11:18:08;;;;;;;53.80;5.13;;;;;;;;;;4980480;28;20031;-42
2021/11/23 11:20:39;;;;;;;43.55;4.53;;;;;;;;;;4978606;28;20031;-38
2021/11/23 11:23:09;;;;;;;190.60;13.07;;;;;;;;;;4982808;28;20076;-39
2021/11/23 11:26:02;;;;;;;91.30;7.22;;;;;;;;;;4984450;28;20041;-40
2021/11/23 11:28:48;;;;;;;70.18;4.88;;;;;;;;;;4987485;28;20050;-40
2021/11/23 11:31:37;;;;;;;68.60;6.45;;;;;;;;;;4982133;28;20044;-40
2021/11/23 11:34:17;;;;;;;72.00;5.43;;;;;;;;;;4987376;28;20069;-38
2021/11/23 11:36:44;;;;;;;233.05;15.73;;;;;;;;;;4986927;28;20131;-39
2021/11/23 11:39:31;;;;;;;47.70;4.45;;;;;;;;;;4987036;28;20026;-42
2021/11/23 11:41:58;;;;;;;58.85;5.22;;;;;;;;;;5000398;28;20878;-41
2021/11/23 11:44:37;;;;;;;64.82;4.72;;;;;;;;;;5004044;28;20046;-38
2021/11/23 11:47:12;;;;;;;61.90;4.65;;;;;;;;;;5007676;28;20053;-42
2021/11/23 11:50:08;;;;;;;52.58;4.40;;;;;;;;;;5010369;28;20034;-43
2021/11/23 11:53:04;;;;;;;51.85;4.00;;;;;;;;;;4993757;28;20100;-41
2021/11/23 11:55:32;;;;;;;263.10;19.60;;;;;;;;;;5001509;28;20149;-39
2021/11/23 11:58:03;;;;;;;335.55;26.13;;;;;;;;;;5010868;28;20461;-41
2021/11/23 12:00:32;;;;;;;259.02;22.40;;;;;;;;;;5010005;28;20029;-41
2021/11/23 12:03:13;;;;;;;229.10;19.98;;;;;;;;;;5009812;28;20030;-41
2021/11/23 12:06:01;;;;;;;244.43;19.73;;;;;;;;;;5008796;28;20091;-43
2021/11/23 12:08:33;;;;;;;152.52;13.05;;;;;;;;;;5009521;28;20030;-42
2021/11/23 12:11:00;;;;;;;143.52;11.02;;;;;;;;;;5010487;28;20037;-46
2021/11/23 12:13:27;;;;;;;77.25;8.40;;;;;;;;;;5008744;28;20508;-46
2021/11/23 12:16:01;;;;;;;88.60;8.43;;;;;;;;;;5004808;28;20057;-42
2021/11/23 12:18:47;;;;;;;98.43;11.00;;;;;;;;;;4982530;28;20493;-45
2021/11/23 12:21:22;;;;;;;96.70;7.57;;;;;;;;;;4988251;28;20035;-44
2021/11/23 12:23:54;;;;;;;50.15;6.93;;;;;;;;;;4992949;28;20905;-45
2021/11/23 12:26:24;;;;;;;57.70;5.40;;;;;;;;;;4992473;28;20042;-44
2021/11/23 12:28:52;;;;;;;64.28;6.35;;;;;;;;;;4980731;28;20038;-47
2021/11/23 12:31:20;;;;;;;50.38;4.15;;;;;;;;;;4992889;28;20037;-43
2021/11/23 12:34:01;;;;;;;46.00;4.35;;;;;;;;;;4995436;28;20102;-42
2021/11/23 12:36:32;;;;;;;60.35;4.93;;;;;;;;;;5143078;22;20065;-42
2021/11/23 12:39:17;;;;;;;93.68;7.60;;;;;;;;;;5021885;28;20022;-44
2021/11/23 12:41:45;;;;;;;187.52;13.70;;;;;;;;;;5025367;28;20026;-43
2021/11/23 12:44:34;;;;;;;151.02;11.70;;;;;;;;;;5018314;28;20032;-42
2021/11/23 12:47:07;;;;;;;101.65;9.52;;;;;;;;;;5024125;28;20547;-42
2021/11/23 12:49:35;;;;;;;61.20;3.72;;;;;;;;;;5028928;28;20061;-43
2021/11/23 12:52:04;;;;;;;38.25;3.45;;;;;;;;;;5032368;28;20032;-43
2021/11/23 12:54:34;;;;;;;68.72;5.53;;;;;;;;;;5028427;28;20029;-41
2021/11/23 12:57:05;;;;;;;69.32;6.18;;;;;;;;;;5030637;28;20041;-39
2021/11/23 12:59:38;;;;;;;34.90;3.30;;;;;;;;;;5032573;28;20036;-41
2021/11/23 13:02:04;;;;;;;;;;;;;;;;;;5031255;28;20017;-39
2021/11/23 13:04:41;;;;;;;51.05;4.28;;;;;;;;;;5029494;28;19932;-39
2021/11/23 13:07:09;;;;;;;43.90;3.00;;;;;;;;;;5030292;28;20045;-37
2021/11/23 13:09:48;;;;;;;52.25;4.43;;;;;;;;;;5032528;28;20021;-41
2021/11/23 13:12:16;;;;;;;53.38;3.70;;;;;;;;;;5031405;28;20025;-40
2021/11/23 13:15:04;;;;;;;35.63;4.43;;;;;;;;;;5031509;28;20029;-39
2021/11/23 13:17:39;;;;;;;56.75;6.07;;;;;;;;;;5029847;28;20053;-39
2021/11/23 13:20:10;;;;;;;53.28;4.35;;;;;;;;;;5030808;28;20029;-39
2021/11/23 13:22:45;;;;;;;41.45;4.30;;;;;;;;;;5031874;28;20032;-39
2021/11/23 13:25:12;;;;;;;48.30;3.53;;;;;;;;;;5032167;28;20033;-40
2021/11/23 13:27:39;;;;;;;36.47;3.22;;;;;;;;;;5032240;28;20033;-40
2021/11/23 13:30:24;;;;;;;58.95;5.97;;;;;;;;;;5028317;28;20022;-40
2021/11/23 13:32:53;;;;;;;64.53;5.82;;;;;;;;;;5031106;28;20420;-40
2021/11/23 13:35:20;;;;;;;64.90;4.88;;;;;;;;;;5031686;28;20056;-40
2021/11/23 13:37:49;;;;;;;42.72;4.43;;;;;;;;;;5032380;28;20041;-39
2021/11/23 13:40:24;;;;;;;62.03;4.30;;;;;;;;;;5030615;28;20393;-40
2021/11/23 13:42:51;;;;;;;92.60;7.65;;;;;;;;;;5029270;28;20025;-40
2021/11/23 13:45:22;;;;;;;48.90;4.70;;;;;;;;;;5030866;28;20068;-40
2021/11/23 13:47:50;;;;;;;46.20;3.50;;;;;;;;;;5030782;28;20033;-40
2021/11/23 13:50:18;;;;;;;36.40;3.00;;;;;;;;;;5030735;28;20026;-42
2021/11/23 13:52:53;;;;;;;56.28;4.88;;;;;;;;;;5030085;28;20029;-41
2021/11/23 13:55:28;;;;;;;61.65;5.03;;;;;;;;;;5028509;28;20044;-43
2021/11/23 13:57:55;;;;;;;44.47;3.38;;;;;;;;;;5008003;28;20122;-40
2021/11/23 14:00:24;;;;;;;63.78;5.20;;;;;;;;;;5027920;28;20049;-40
2021/11/23 14:02:51;;;;;;;53.63;4.03;;;;;;;;;;5029609;28;20024;-40
2021/11/23 14:05:39;;;;;;;32.20;3.42;;;;;;;;;;5030073;28;20017;-38
2021/11/23 14:08:07;;;;;;;56.25;4.40;;;;;;;;;;5030720;28;20116;-40
2021/11/23 14:10:37;;;;;;;71.03;5.97;;;;;;;;;;5030520;28;20014;-40
2021/11/23 14:13:05;;;;;;;71.50;4.57;;;;;;;;;;5029949;28;20101;-40
2021/11/23 14:15:42;;;;;;;73.40;6.70;;;;;;;;;;5031725;28;20045;-40
2021/11/23 14:18:11;;;;;;;52.00;4.45;;;;;;;;;;5031600;28;20358;-41
2021/11/23 14:20:47;;;;;;;37.85;3.80;;;;;;;;;;5031237;28;20052;-41
2021/11/23 14:23:17;;;;;;;171.02;13.25;;;;;;;;;;5029513;28;20110;-42
2021/11/23 14:25:49;;;;;;;114.57;8.48;;;;;;;;;;5031617;28;20029;-42
2021/11/23 14:28:16;;;;;;;86.10;6.55;;;;;;;;;;5031665;28;20021;-40
2021/11/23 14:30:43;;;;;;;157.18;11.80;;;;;;;;;;5030727;28;20045;-38
2021/11/23 14:33:11;;;;;;;188.60;15.20;;;;;;;;;;5030161;28;20022;-38
2021/11/23 14:35:38;;;;;;;105.07;7.45;;;;;;;;;;5029835;28;20108;-39
2021/11/23 14:38:05;;;;;;;56.33;5.32;;;;;;;;;;5030915;28;20029;-39